Time;durP1;ratioP1;P1;durP2;ratioP2;P2;SDS_P1;SDS_P2;PMS_P1;PMS_P2;Temp;Humidity;BMP_temperature;BMP_pressure;BME280_temperature;BME280_humidity;BME280_pressure;Samples;Min_cycle;Max_cycle;Signal;HPM_P1;HPM_P2
2023/03/27 00:00:26;;;;;;;3.35;1.30;;;;;;;;;;5029122;28;20546;-61
2023/03/27 00:02:56;;;;;;;2.83;1.25;;;;;;;;;;5108433;28;20043;-60
2023/03/27 00:05:23;;;;;;;1.75;1.08;;;;;;;;;;5067468;28;20113;-61
2023/03/27 00:07:56;;;;;;;2.60;1.40;;;;;;;;;;5010179;28;20022;-61
2023/03/27 00:10:24;;;;;;;4.82;1.48;;;;;;;;;;5016874;28;20030;-61
2023/03/27 00:12:50;;;;;;;1.63;1.00;;;;;;;;;;5009955;28;20418;-61
2023/03/27 00:15:17;;;;;;;1.88;1.02;;;;;;;;;;5044698;28;20057;-61
2023/03/27 00:17:45;;;;;;;1.60;1.05;;;;;;;;;;5107521;28;20084;-61
2023/03/27 00:20:13;;;;;;;8.85;1.42;;;;;;;;;;5033564;28;20037;-61
2023/03/27 00:22:39;;;;;;;1.30;1.02;;;;;;;;;;5040790;28;20084;-62
2023/03/27 00:25:07;;;;;;;3.25;1.15;;;;;;;;;;5054371;28;20069;-61
2023/03/27 00:27:33;;;;;;;3.92;1.55;;;;;;;;;;5036371;28;20083;-61
2023/03/27 00:30:00;;;;;;;3.20;1.63;;;;;;;;;;5109242;28;20051;-61
2023/03/27 00:32:27;;;;;;;3.45;0.95;;;;;;;;;;5013146;28;20027;-61
2023/03/27 00:34:54;;;;;;;1.17;0.90;;;;;;;;;;5112210;28;20054;-61
2023/03/27 00:37:20;;;;;;;1.60;0.98;;;;;;;;;;5071890;28;20480;-61
2023/03/27 00:39:49;;;;;;;5.55;1.02;;;;;;;;;;5004268;28;20030;-61
2023/03/27 00:42:21;;;;;;;2.47;1.50;;;;;;;;;;5060109;28;20128;-61
2023/03/27 00:44:52;;;;;;;3.72;1.35;;;;;;;;;;5106442;28;20027;-62
2023/03/27 00:47:21;;;;;;;5.43;0.95;;;;;;;;;;5070759;28;20074;-60
2023/03/27 00:49:49;;;;;;;6.03;1.45;;;;;;;;;;5018236;28;20034;-61
2023/03/27 00:52:18;;;;;;;2.13;1.38;;;;;;;;;;5067504;28;20034;-61
2023/03/27 00:54:46;;;;;;;2.60;1.52;;;;;;;;;;5116121;28;20107;-60
2023/03/27 00:57:15;;;;;;;3.47;1.50;;;;;;;;;;5060875;28;20034;-61
2023/03/27 00:59:42;;;;;;;2.65;1.15;;;;;;;;;;5010987;28;20030;-60
2023/03/27 01:02:09;;;;;;;4.07;1.10;;;;;;;;;;5050423;28;20129;-60
2023/03/27 01:04:37;;;;;;;2.72;1.20;;;;;;;;;;5047802;28;20453;-60
2023/03/27 01:07:06;;;;;;;6.05;1.40;;;;;;;;;;5037401;28;20114;-60
2023/03/27 01:09:32;;;;;;;4.80;1.67;;;;;;;;;;5056476;28;20503;-61
2023/03/27 01:12:02;;;;;;;1.27;0.98;;;;;;;;;;5046108;28;20015;-60
2023/03/27 01:15:07;;;;;;;3.63;1.13;;;;;;;;;;5076453;28;20418;-60
2023/03/27 01:17:40;;;;;;;1.48;1.17;;;;;;;;;;5001216;28;20031;-60
2023/03/27 01:20:18;;;;;;;3.17;1.53;;;;;;;;;;4952441;29;20050;-59
2023/03/27 01:22:57;;;;;;;2.07;1.20;;;;;;;;;;5043728;28;20083;-60
2023/03/27 01:25:44;;;;;;;8.67;2.03;;;;;;;;;;5110255;28;20047;-60
2023/03/27 01:28:35;;;;;;;3.57;1.23;;;;;;;;;;5101510;28;20051;-60
2023/03/27 01:31:02;;;;;;;3.60;1.27;;;;;;;;;;5029719;28;20670;-58
2023/03/27 01:33:48;;;;;;;3.63;1.07;;;;;;;;;;5010257;28;20030;-59
2023/03/27 01:39:04;;;;;;;2.87;1.33;;;;;;;;;;4935959;28;20193;-58
2023/03/27 01:41:30;;;;;;;5.03;2.23;;;;;;;;;;4916091;28;20162;-57
2023/03/27 01:44:00;;;;;;;1.97;1.00;;;;;;;;;;5016181;28;20029;-58
2023/03/27 01:46:31;;;;;;;2.20;1.27;;;;;;;;;;5030310;28;20021;-58
2023/03/27 01:49:01;;;;;;;2.17;0.80;;;;;;;;;;4963764;28;20079;-58
2023/03/27 01:51:42;;;;;;;1.73;1.00;;;;;;;;;;5030146;28;20078;-58
2023/03/27 01:54:12;;;;;;;2.30;1.50;;;;;;;;;;4938682;28;20185;-58
2023/03/27 01:56:50;;;;;;;1.90;1.17;;;;;;;;;;4934613;28;20038;-57
2023/03/27 01:59:17;;;;;;;2.73;1.63;;;;;;;;;;5026718;28;20033;-58
2023/03/27 02:01:51;;;;;;;17.33;1.67;;;;;;;;;;5034130;28;20171;-58
2023/03/27 02:04:20;;;;;;;2.40;1.25;;;;;;;;;;4942940;28;20445;-58
2023/03/27 02:06:50;;;;;;;7.37;1.37;;;;;;;;;;4959871;28;20028;-58
2023/03/27 02:09:42;;;;;;;8.73;1.60;;;;;;;;;;5021246;28;20049;-57
2023/03/27 02:12:15;;;;;;;1.90;1.23;;;;;;;;;;5018973;28;20116;-58
2023/03/27 02:14:54;;;;;;;2.43;1.60;;;;;;;;;;5023866;28;20384;-58
2023/03/27 02:17:24;;;;;;;1.70;1.20;;;;;;;;;;4990647;28;20029;-58
2023/03/27 02:19:51;;;;;;;3.03;1.47;;;;;;;;;;5003259;28;20063;-57
2023/03/27 02:22:19;;;;;;;1.30;0.97;;;;;;;;;;4933712;28;20118;-57
2023/03/27 02:24:47;;;;;;;4.63;1.23;;;;;;;;;;4940640;28;20039;-58
2023/03/27 02:27:37;;;;;;;3.10;1.70;;;;;;;;;;4980481;28;20069;-57
2023/03/27 02:30:10;;;;;;;1.60;1.10;;;;;;;;;;4930863;28;20402;-57
2023/03/27 02:32:55;;;;;;;4.10;1.53;;;;;;;;;;4945205;28;20035;-59
2023/03/27 02:35:21;;;;;;;;;;;;;;;;;;4971051;28;20379;-58
2023/03/27 02:38:00;;;;;;;13.30;1.20;;;;;;;;;;5004876;28;19924;-59
2023/03/27 02:40:26;;;;;;;3.27;1.27;;;;;;;;;;4961691;28;20027;-56
2023/03/27 02:43:19;;;;;;;6.13;1.70;;;;;;;;;;4934650;28;20032;-58
2023/03/27 02:45:51;;;;;;;4.10;1.33;;;;;;;;;;4972806;28;20080;-57
2023/03/27 02:48:17;;;;;;;1.87;1.20;;;;;;;;;;5006681;28;20024;-57
2023/03/27 02:50:46;;;;;;;5.87;1.10;;;;;;;;;;4956586;28;20036;-57
2023/03/27 02:53:17;;;;;;;1.90;1.30;;;;;;;;;;5009591;28;20033;-58
2023/03/27 02:55:47;;;;;;;1.50;1.10;;;;;;;;;;4999757;28;20026;-56
2023/03/27 02:58:17;;;;;;;7.23;1.77;;;;;;;;;;5020427;28;20494;-58
2023/03/27 03:00:47;;;;;;;1.60;1.03;;;;;;;;;;4991973;28;20115;-58
2023/03/27 03:03:26;;;;;;;4.00;1.80;;;;;;;;;;4932427;28;20030;-57
2023/03/27 03:05:57;;;;;;;5.30;1.97;;;;;;;;;;4966753;28;20033;-57
2023/03/27 03:08:29;;;;;;;2.90;1.23;;;;;;;;;;4971163;28;20052;-55
2023/03/27 03:10:59;;;;;;;1.47;1.10;;;;;;;;;;5032062;28;20026;-55
2023/03/27 03:13:26;;;;;;;1.53;1.10;;;;;;;;;;4948283;28;20024;-54
2023/03/27 03:15:53;;;;;;;2.50;1.33;;;;;;;;;;4928970;28;20038;-58
2023/03/27 03:18:19;;;;;;;2.73;1.37;;;;;;;;;;4965527;28;20085;-58
2023/03/27 03:20:46;;;;;;;1.80;1.23;;;;;;;;;;5000795;28;20028;-57
2023/03/27 03:23:13;;;;;;;4.97;1.83;;;;;;;;;;5028632;28;20416;-57
2023/03/27 03:25:40;;;;;;;3.17;1.70;;;;;;;;;;4998839;28;20037;-57
2023/03/27 03:28:08;;;;;;;2.40;1.57;;;;;;;;;;4961696;28;20036;-57
2023/03/27 03:30:37;;;;;;;3.30;1.73;;;;;;;;;;4958621;28;20032;-57
2023/03/27 03:33:04;;;;;;;2.37;1.33;;;;;;;;;;4953648;28;20170;-57
2023/03/27 03:35:33;;;;;;;1.97;1.23;;;;;;;;;;5005088;28;20032;-57
2023/03/27 03:38:00;;;;;;;2.47;1.50;;;;;;;;;;5005207;28;20032;-57
2023/03/27 03:40:26;;;;;;;4.37;1.40;;;;;;;;;;4947117;28;20534;-59
2023/03/27 03:42:53;;;;;;;1.43;1.13;;;;;;;;;;4935244;28;20148;-58
2023/03/27 03:45:20;;;;;;;2.17;1.13;;;;;;;;;;4984645;28;20108;-57
2023/03/27 03:47:47;;;;;;;1.83;1.23;;;;;;;;;;4986790;28;20029;-58
2023/03/27 03:50:14;;;;;;;2.00;1.20;;;;;;;;;;5004767;28;20112;-57
2023/03/27 03:52:41;;;;;;;1.43;1.13;;;;;;;;;;4979438;28;20031;-58
2023/03/27 03:55:09;;;;;;;1.83;1.30;;;;;;;;;;4932203;28;20020;-58
2023/03/27 03:57:36;;;;;;;1.73;1.17;;;;;;;;;;4959453;28;20033;-57
2023/03/27 04:00:07;;;;;;;1.10;0.90;;;;;;;;;;4940688;28;20051;-57
2023/03/27 04:02:36;;;;;;;1.40;1.03;;;;;;;;;;4945189;28;20032;-57
2023/03/27 04:05:03;;;;;;;3.97;1.47;;;;;;;;;;5027005;28;20055;-57
2023/03/27 04:07:30;;;;;;;2.97;1.57;;;;;;;;;;5022431;28;20435;-58
2023/03/27 04:10:00;;;;;;;4.30;1.70;;;;;;;;;;4929111;28;20047;-57
2023/03/27 04:12:27;;;;;;;4.07;1.97;;;;;;;;;;4931702;28;20039;-57
2023/03/27 04:14:54;;;;;;;1.80;1.07;;;;;;;;;;4932204;28;20063;-57
2023/03/27 04:17:22;;;;;;;4.60;1.97;;;;;;;;;;4939042;28;20480;-57
2023/03/27 04:19:49;;;;;;;0.57;0.57;;;;;;;;;;4935255;28;20487;-57
2023/03/27 04:22:16;;;;;;;6.57;1.23;;;;;;;;;;4931258;28;20364;-57
2023/03/27 04:24:49;;;;;;;1.47;1.20;;;;;;;;;;4926739;28;20032;-57
2023/03/27 04:27:22;;;;;;;2.50;1.57;;;;;;;;;;5010846;28;20423;-57
2023/03/27 04:29:48;;;;;;;2.07;1.17;;;;;;;;;;5030699;28;20037;-58
2023/03/27 04:32:18;;;;;;;1.77;1.23;;;;;;;;;;4951649;28;20086;-58
2023/03/27 04:34:47;;;;;;;17.23;1.90;;;;;;;;;;4941781;28;20371;-57
2023/03/27 04:37:14;;;;;;;4.00;1.83;;;;;;;;;;4935739;28;20127;-57
2023/03/27 04:39:45;;;;;;;2.13;1.20;;;;;;;;;;4943599;28;20036;-57
2023/03/27 04:42:13;;;;;;;1.30;0.87;;;;;;;;;;4985146;28;20506;-57
2023/03/27 04:44:40;;;;;;;4.80;1.90;;;;;;;;;;4978069;28;20440;-57
2023/03/27 04:47:07;;;;;;;3.80;1.43;;;;;;;;;;4998745;28;20066;-57
2023/03/27 04:49:39;;;;;;;8.33;1.53;;;;;;;;;;4930660;28;20050;-57
2023/03/27 04:52:12;;;;;;;2.13;1.20;;;;;;;;;;4977700;28;20408;-57
2023/03/27 04:54:40;;;;;;;2.33;1.27;;;;;;;;;;5032156;28;20037;-57
2023/03/27 04:57:08;;;;;;;4.13;1.13;;;;;;;;;;4990429;28;20028;-57
2023/03/27 04:59:35;;;;;;;3.87;1.53;;;;;;;;;;4935464;28;20483;-58
2023/03/27 05:02:03;;;;;;;4.33;1.40;;;;;;;;;;4957970;28;20036;-57
2023/03/27 05:04:31;;;;;;;3.10;1.50;;;;;;;;;;4935413;28;20042;-57
2023/03/27 05:06:59;;;;;;;7.23;1.73;;;;;;;;;;4967357;28;20021;-57
2023/03/27 05:09:26;;;;;;;1.37;1.13;;;;;;;;;;5030624;28;20470;-58
2023/03/27 05:11:53;;;;;;;3.07;1.63;;;;;;;;;;4997800;28;20028;-57
2023/03/27 05:14:20;;;;;;;1.90;1.20;;;;;;;;;;4951240;28;20026;-58
2023/03/27 05:16:51;;;;;;;1.23;0.90;;;;;;;;;;4986433;28;20032;-58
2023/03/27 05:19:21;;;;;;;1.03;0.83;;;;;;;;;;5034940;28;20168;-58
2023/03/27 05:21:48;;;;;;;7.50;1.27;;;;;;;;;;5015565;28;20031;-57
2023/03/27 05:24:18;;;;;;;1.97;1.43;;;;;;;;;;4960341;28;20078;-57
2023/03/27 05:26:45;;;;;;;2.57;1.30;;;;;;;;;;5019175;28;20386;-58
2023/03/27 05:29:12;;;;;;;2.67;1.47;;;;;;;;;;4933179;28;20059;-58
2023/03/27 05:31:39;;;;;;;1.83;1.13;;;;;;;;;;4938146;28;20059;-57
2023/03/27 05:34:06;;;;;;;2.50;1.50;;;;;;;;;;5030387;28;20108;-57
2023/03/27 05:36:34;;;;;;;4.50;1.60;;;;;;;;;;5021200;28;20392;-58
2023/03/27 05:39:01;;;;;;;1.70;1.30;;;;;;;;;;5013332;28;20039;-58
2023/03/27 05:41:27;;;;;;;5.40;1.50;;;;;;;;;;4938002;28;20035;-58
2023/03/27 05:43:54;;;;;;;2.53;1.77;;;;;;;;;;5035294;28;20101;-57
2023/03/27 05:46:21;;;;;;;1.83;1.20;;;;;;;;;;5033334;28;20033;-58
2023/03/27 05:48:48;;;;;;;2.70;1.70;;;;;;;;;;4915860;28;20036;-57
2023/03/27 05:51:14;;;;;;;3.97;1.93;;;;;;;;;;4992939;28;20423;-58
2023/03/27 05:53:41;;;;;;;3.10;1.73;;;;;;;;;;4935815;28;20028;-58
2023/03/27 05:56:09;;;;;;;3.77;1.63;;;;;;;;;;4929703;28;20047;-58
2023/03/27 05:58:36;;;;;;;1.77;1.10;;;;;;;;;;5017492;28;20105;-58
2023/03/27 06:01:03;;;;;;;4.37;2.30;;;;;;;;;;5028860;28;20022;-58
2023/03/27 06:03:29;;;;;;;1.80;1.13;;;;;;;;;;4953313;28;20449;-58
2023/03/27 06:06:00;;;;;;;3.50;1.93;;;;;;;;;;4987048;28;20549;-58
2023/03/27 06:08:28;;;;;;;2.27;1.60;;;;;;;;;;4957611;28;20371;-58
2023/03/27 06:10:56;;;;;;;4.23;1.77;;;;;;;;;;4934370;28;20044;-57
2023/03/27 06:13:24;;;;;;;1.50;1.27;;;;;;;;;;5004328;28;20033;-58
2023/03/27 06:15:53;;;;;;;3.03;1.67;;;;;;;;;;4941385;28;20052;-58
2023/03/27 06:18:19;;;;;;;3.53;1.83;;;;;;;;;;4934942;28;20060;-57
2023/03/27 06:20:46;;;;;;;2.93;1.73;;;;;;;;;;4981669;28;20027;-58
2023/03/27 06:23:13;;;;;;;6.83;2.57;;;;;;;;;;4943166;28;20035;-58
2023/03/27 06:25:42;;;;;;;3.53;1.43;;;;;;;;;;4940401;28;20445;-57
2023/03/27 06:28:10;;;;;;;1.43;1.03;;;;;;;;;;5011166;28;20022;-58
2023/03/27 06:30:37;;;;;;;7.83;1.40;;;;;;;;;;4940399;28;20082;-57
2023/03/27 06:33:06;;;;;;;2.40;1.40;;;;;;;;;;4936119;28;20031;-58
2023/03/27 06:35:34;;;;;;;2.03;1.20;;;;;;;;;;4969880;28;20026;-57
2023/03/27 06:38:04;;;;;;;2.30;1.47;;;;;;;;;;4958599;28;20093;-58
2023/03/27 06:40:34;;;;;;;4.10;2.03;;;;;;;;;;4928961;28;20032;-57
2023/03/27 06:43:00;;;;;;;3.33;1.97;;;;;;;;;;4995863;28;20488;-57
2023/03/27 06:45:28;;;;;;;1.27;1.07;;;;;;;;;;4999697;28;20026;-58
2023/03/27 06:47:59;;;;;;;4.57;1.93;;;;;;;;;;5026962;28;20056;-57
2023/03/27 06:50:27;;;;;;;3.93;2.03;;;;;;;;;;4950668;28;20039;-58
2023/03/27 06:52:54;;;;;;;1.47;1.27;;;;;;;;;;4932914;28;20027;-58
2023/03/27 06:55:21;;;;;;;1.57;1.13;;;;;;;;;;4981120;28;20197;-58
2023/03/27 06:57:49;;;;;;;5.40;2.17;;;;;;;;;;4933029;28;20031;-58
2023/03/27 07:00:21;;;;;;;1.27;1.03;;;;;;;;;;4928005;28;20561;-58
2023/03/27 07:02:48;;;;;;;4.30;1.20;;;;;;;;;;4927581;28;20348;-57
2023/03/27 07:05:15;;;;;;;3.87;1.83;;;;;;;;;;4927639;28;20032;-58
2023/03/27 07:07:43;;;;;;;2.63;1.27;;;;;;;;;;4927523;28;20027;-58
2023/03/27 07:10:10;;;;;;;3.40;1.77;;;;;;;;;;4931982;28;20085;-57
2023/03/27 07:12:37;;;;;;;2.93;1.73;;;;;;;;;;4933700;28;20445;-57
2023/03/27 07:15:05;;;;;;;5.83;1.87;;;;;;;;;;4932643;28;20035;-57
2023/03/27 07:17:32;;;;;;;2.00;1.50;;;;;;;;;;4932702;28;20036;-58
2023/03/27 07:20:00;;;;;;;2.80;1.73;;;;;;;;;;4932629;28;20445;-57
2023/03/27 07:22:26;;;;;;;2.00;1.23;;;;;;;;;;4927858;28;20039;-57
2023/03/27 07:24:53;;;;;;;3.60;1.60;;;;;;;;;;4927923;28;20027;-57
2023/03/27 07:27:21;;;;;;;4.43;2.17;;;;;;;;;;4927402;28;20543;-58
2023/03/27 07:29:48;;;;;;;2.53;1.67;;;;;;;;;;4927237;28;20036;-57
2023/03/27 07:32:14;;;;;;;1.03;0.93;;;;;;;;;;4931005;28;20482;-57
2023/03/27 07:34:41;;;;;;;3.37;1.83;;;;;;;;;;4932450;28;20359;-58
2023/03/27 07:37:08;;;;;;;4.07;2.27;;;;;;;;;;4932835;28;20031;-57
2023/03/27 07:39:35;;;;;;;3.67;2.70;;;;;;;;;;4932483;28;20425;-58
2023/03/27 07:42:01;;;;;;;4.23;2.30;;;;;;;;;;4932540;28;20038;-57
2023/03/27 07:44:28;;;;;;;1.67;1.23;;;;;;;;;;4928525;28;20038;-58
2023/03/27 07:46:55;;;;;;;3.07;2.00;;;;;;;;;;4927230;28;20027;-57
2023/03/27 07:49:23;;;;;;;6.07;2.30;;;;;;;;;;4927396;28;20036;-58
2023/03/27 07:51:50;;;;;;;4.30;2.33;;;;;;;;;;4926745;28;20039;-58
2023/03/27 07:54:16;;;;;;;2.63;1.43;;;;;;;;;;4929904;28;20062;-58
2023/03/27 07:56:43;;;;;;;2.93;1.87;;;;;;;;;;4932334;28;20024;-58
2023/03/27 07:59:10;;;;;;;7.07;2.27;;;;;;;;;;4932337;28;20055;-57
2023/03/27 08:01:37;;;;;;;2.63;1.83;;;;;;;;;;4932507;28;20478;-57
2023/03/27 08:04:04;;;;;;;4.33;1.63;;;;;;;;;;4963504;28;20029;-57
2023/03/27 08:06:33;;;;;;;7.07;2.80;;;;;;;;;;5028527;28;20040;-57
2023/03/27 08:09:00;;;;;;;2.87;2.00;;;;;;;;;;5026373;28;20476;-58
2023/03/27 08:11:26;;;;;;;3.63;1.90;;;;;;;;;;5026419;28;20044;-58
2023/03/27 08:13:53;;;;;;;2.40;1.70;;;;;;;;;;5025614;28;20496;-57
2023/03/27 08:16:20;;;;;;;4.77;2.77;;;;;;;;;;5029104;28;20488;-57
2023/03/27 08:18:48;;;;;;;3.93;2.00;;;;;;;;;;5031791;28;20506;-58
2023/03/27 08:21:15;;;;;;;3.60;2.17;;;;;;;;;;5032021;28;20026;-57
2023/03/27 08:23:42;;;;;;;3.13;2.20;;;;;;;;;;5032036;28;20072;-57
2023/03/27 08:26:09;;;;;;;2.33;1.77;;;;;;;;;;5030639;28;20022;-57
2023/03/27 08:28:36;;;;;;;11.97;3.10;;;;;;;;;;5029214;28;20595;-57
2023/03/27 08:31:08;;;;;;;3.03;1.97;;;;;;;;;;5026276;28;20055;-57
2023/03/27 08:33:35;;;;;;;1.33;1.03;;;;;;;;;;5026402;28;20025;-58
2023/03/27 08:36:03;;;;;;;2.03;1.47;;;;;;;;;;5026293;28;20026;-57
2023/03/27 08:38:32;;;;;;;3.10;2.00;;;;;;;;;;5027310;28;20069;-58
2023/03/27 08:40:59;;;;;;;2.63;1.60;;;;;;;;;;4952810;28;20031;-57
2023/03/27 08:43:40;;;;;;;4.07;1.97;;;;;;;;;;4931681;28;20166;-57
2023/03/27 08:46:10;;;;;;;2.03;1.27;;;;;;;;;;4931466;28;20027;-57
2023/03/27 08:49:00;;;;;;;2.37;1.40;;;;;;;;;;4931808;28;20031;-57
2023/03/27 08:51:30;;;;;;;7.57;1.90;;;;;;;;;;4923725;28;20048;-58
2023/03/27 08:54:02;;;;;;;4.07;1.53;;;;;;;;;;4926346;28;20047;-57
2023/03/27 08:56:29;;;;;;;2.83;1.60;;;;;;;;;;4926078;28;20035;-59
2023/03/27 08:58:55;;;;;;;1.87;1.17;;;;;;;;;;4926136;28;20383;-58
2023/03/27 09:01:29;;;;;;;1.70;1.33;;;;;;;;;;4929063;28;20086;-58
2023/03/27 09:04:00;;;;;;;6.50;1.63;;;;;;;;;;4931225;28;20114;-58
2023/03/27 09:06:36;;;;;;;2.40;1.53;;;;;;;;;;4931449;28;20122;-57
2023/03/27 09:09:30;;;;;;;2.03;1.30;;;;;;;;;;4931432;28;20032;-58
2023/03/27 09:12:01;;;;;;;4.37;1.67;;;;;;;;;;4931202;28;20034;-57
2023/03/27 09:14:28;;;;;;;2.53;1.80;;;;;;;;;;4929023;28;20459;-57
2023/03/27 09:16:56;;;;;;;1.63;1.13;;;;;;;;;;4929294;28;20374;-57
2023/03/27 09:19:58;;;;;;;5.77;1.97;;;;;;;;;;4928755;28;20467;-57
2023/03/27 09:22:30;;;;;;;1.83;1.67;;;;;;;;;;4888570;29;20115;-58
2023/03/27 09:25:02;;;;;;;2.13;1.43;;;;;;;;;;4928233;28;20539;-59
2023/03/27 09:27:33;;;;;;;3.60;2.00;;;;;;;;;;4934995;28;20028;-57
2023/03/27 09:30:18;;;;;;;2.67;1.60;;;;;;;;;;4934249;28;20490;-57
2023/03/27 09:32:47;;;;;;;2.42;1.65;;;;;;;;;;4934363;28;20035;-57
2023/03/27 09:35:19;;;;;;;3.23;1.97;;;;;;;;;;4940075;28;20027;-57
2023/03/27 09:37:47;;;;;;;3.33;2.30;;;;;;;;;;4986397;28;20392;-58
2023/03/27 09:40:43;;;;;;;3.97;1.73;;;;;;;;;;5028982;28;20025;-57
2023/03/27 09:43:15;;;;;;;1.43;1.23;;;;;;;;;;5029100;28;20025;-57
2023/03/27 09:45:42;;;;;;;1.80;1.17;;;;;;;;;;5029933;28;20079;-57
2023/03/27 09:48:15;;;;;;;2.80;1.63;;;;;;;;;;5034486;28;20087;-58
2023/03/27 09:50:46;;;;;;;1.33;1.20;;;;;;;;;;5034285;28;20116;-57
2023/03/27 09:53:12;;;;;;;2.37;1.97;;;;;;;;;;5034017;28;20060;-57
2023/03/27 09:55:49;;;;;;;3.80;1.60;;;;;;;;;;5034160;28;20041;-58
2023/03/27 09:58:16;;;;;;;2.10;1.47;;;;;;;;;;4988756;28;20474;-57
2023/03/27 10:00:42;;;;;;;3.43;1.70;;;;;;;;;;5001928;28;20456;-57
2023/03/27 10:03:17;;;;;;;1.47;1.27;;;;;;;;;;5028426;28;20041;-58
2023/03/27 10:05:45;;;;;;;2.95;1.98;;;;;;;;;;5028417;28;20199;-57
2023/03/27 10:08:24;;;;;;;2.90;1.83;;;;;;;;;;5030898;28;20061;-57
2023/03/27 10:10:58;;;;;;;7.83;2.10;;;;;;;;;;5031487;28;20033;-57
2023/03/27 10:13:26;;;;;;;2.37;1.77;;;;;;;;;;5033846;28;20028;-57
2023/03/27 10:16:06;;;;;;;3.33;1.90;;;;;;;;;;5033817;28;20492;-57
2023/03/27 10:18:42;;;;;;;2.00;1.50;;;;;;;;;;5033857;28;20053;-57
2023/03/27 10:21:16;;;;;;;2.83;1.83;;;;;;;;;;5028789;28;20522;-57
2023/03/27 10:23:50;;;;;;;2.00;1.27;;;;;;;;;;5028197;28;20022;-59
2023/03/27 10:26:19;;;;;;;3.20;1.93;;;;;;;;;;5027857;28;20014;-57
2023/03/27 10:28:52;;;;;;;4.47;2.20;;;;;;;;;;5027867;28;20025;-57
2023/03/27 10:31:28;;;;;;;2.77;1.67;;;;;;;;;;5032227;28;20034;-57
2023/03/27 10:33:58;;;;;;;4.77;2.37;;;;;;;;;;5032639;28;20076;-57
2023/03/27 10:36:25;;;;;;;1.07;0.97;;;;;;;;;;5033548;28;20030;-57
2023/03/27 10:39:00;;;;;;;2.13;1.40;;;;;;;;;;4943188;28;20075;-57
2023/03/27 10:41:28;;;;;;;5.17;1.67;;;;;;;;;;4933474;28;20034;-57
2023/03/27 10:43:56;;;;;;;2.67;1.83;;;;;;;;;;4928176;28;20081;-57
2023/03/27 10:46:25;;;;;;;2.10;1.70;;;;;;;;;;4927772;28;20036;-57
2023/03/27 10:48:57;;;;;;;2.90;1.67;;;;;;;;;;4928265;28;20031;-57
2023/03/27 10:51:42;;;;;;;2.03;1.43;;;;;;;;;;4927332;28;20043;-58
2023/03/27 10:54:19;;;;;;;3.05;1.67;;;;;;;;;;4934549;28;20052;-58
2023/03/27 10:56:53;;;;;;;5.87;2.10;;;;;;;;;;4914018;28;20111;-58
2023/03/27 10:59:23;;;;;;;2.33;1.80;;;;;;;;;;4917928;28;20060;-57
2023/03/27 11:01:53;;;;;;;2.10;1.67;;;;;;;;;;4932966;28;20143;-57
2023/03/27 11:04:41;;;;;;;7.83;2.77;;;;;;;;;;4932378;28;20074;-57
2023/03/27 11:07:12;;;;;;;1.87;1.50;;;;;;;;;;4927613;28;20479;-57
2023/03/27 11:09:47;;;;;;;3.40;1.50;;;;;;;;;;4927282;28;20032;-57
2023/03/27 11:12:14;;;;;;;2.55;1.95;;;;;;;;;;4928020;28;20094;-58
2023/03/27 11:15:00;;;;;;;2.80;2.00;;;;;;;;;;4928661;28;20042;-57
2023/03/27 11:17:32;;;;;;;2.00;1.40;;;;;;;;;;4933110;28;20437;-57
2023/03/27 11:20:05;;;;;;;2.40;1.73;;;;;;;;;;4932275;28;20099;-57
2023/03/27 11:22:35;;;;;;;3.70;2.10;;;;;;;;;;4932888;28;20748;-57
2023/03/27 11:25:22;;;;;;;1.33;1.13;;;;;;;;;;4933218;28;20061;-58
2023/03/27 11:27:52;;;;;;;2.30;1.37;;;;;;;;;;4909426;28;20039;-57
2023/03/27 11:30:25;;;;;;;2.73;1.93;;;;;;;;;;4926912;28;20036;-57
2023/03/27 11:33:14;;;;;;;1.60;1.50;;;;;;;;;;4927348;28;20034;-58
2023/03/27 11:35:44;;;;;;;3.23;2.27;;;;;;;;;;4927540;28;20386;-57
2023/03/27 11:38:18;;;;;;;3.10;1.67;;;;;;;;;;4930557;28;20040;-57
2023/03/27 11:40:46;;;;;;;1.23;1.10;;;;;;;;;;4932576;28;20059;-57
2023/03/27 11:43:14;;;;;;;3.07;2.00;;;;;;;;;;4932391;28;20047;-57
2023/03/27 11:45:44;;;;;;;3.50;2.43;;;;;;;;;;4932555;28;20035;-57
2023/03/27 11:48:35;;;;;;;1.97;1.57;;;;;;;;;;4932796;28;20486;-57
2023/03/27 11:51:07;;;;;;;4.53;2.10;;;;;;;;;;4927068;29;20043;-57
2023/03/27 11:53:52;;;;;;;4.30;2.63;;;;;;;;;;4927034;28;20504;-57
2023/03/27 11:56:19;;;;;;;4.88;2.22;;;;;;;;;;4926932;28;20525;-57
2023/03/27 11:59:04;;;;;;;4.70;1.97;;;;;;;;;;4926808;28;20043;-57
2023/03/27 12:01:43;;;;;;;5.40;2.30;;;;;;;;;;4932970;28;20378;-57
2023/03/27 12:04:19;;;;;;;2.70;1.97;;;;;;;;;;4932413;28;20032;-57
2023/03/27 12:06:51;;;;;;;2.37;1.57;;;;;;;;;;4932024;28;20036;-58
2023/03/27 12:09:24;;;;;;;4.23;2.03;;;;;;;;;;4932239;28;20082;-57
2023/03/27 12:12:10;;;;;;;2.37;1.63;;;;;;;;;;4930113;28;20036;-57
2023/03/27 12:14:50;;;;;;;6.20;2.30;;;;;;;;;;4926733;28;20494;-57
2023/03/27 12:17:28;;;;;;;2.10;1.37;;;;;;;;;;4926635;28;20031;-57
2023/03/27 12:19:54;;;;;;;4.23;2.03;;;;;;;;;;4926613;28;20036;-57
2023/03/27 12:22:39;;;;;;;7.23;2.53;;;;;;;;;;4929138;28;20030;-57
2023/03/27 12:25:25;;;;;;;2.30;2.05;;;;;;;;;;4951124;28;20027;-57
2023/03/27 12:28:00;;;;;;;1.57;1.27;;;;;;;;;;4991424;28;20033;-57
2023/03/27 12:30:27;;;;;;;3.40;1.63;;;;;;;;;;5031806;28;20034;-57
2023/03/27 12:33:05;;;;;;;2.40;1.47;;;;;;;;;;5032083;28;20373;-57
2023/03/27 12:35:35;;;;;;;5.70;2.30;;;;;;;;;;5025798;28;20072;-57
2023/03/27 12:38:05;;;;;;;2.03;1.37;;;;;;;;;;5026089;28;20065;-57
2023/03/27 12:40:33;;;;;;;8.93;2.40;;;;;;;;;;5026197;28;20387;-57
2023/03/27 12:43:08;;;;;;;3.40;1.93;;;;;;;;;;5026156;28;20049;-57
2023/03/27 12:45:35;;;;;;;2.07;1.37;;;;;;;;;;5030673;28;20250;-57
2023/03/27 12:48:11;;;;;;;3.20;1.37;;;;;;;;;;5019050;28;20089;-58
2023/03/27 12:50:57;;;;;;;2.93;2.07;;;;;;;;;;4934722;28;20119;-58
2023/03/27 12:53:26;;;;;;;3.70;2.03;;;;;;;;;;4934805;28;20262;-58
2023/03/27 12:56:11;;;;;;;3.40;1.97;;;;;;;;;;4933968;28;20733;-57
2023/03/27 12:58:39;;;;;;;3.38;1.88;;;;;;;;;;4929568;28;20787;-57
2023/03/27 13:01:08;;;;;;;3.17;2.23;;;;;;;;;;4936627;28;20035;-58
2023/03/27 13:03:53;;;;;;;2.50;1.73;;;;;;;;;;4930309;28;20118;-57
2023/03/27 13:06:21;;;;;;;5.72;1.83;;;;;;;;;;4966340;28;20028;-57
2023/03/27 13:08:53;;;;;;;2.97;1.70;;;;;;;;;;4976944;28;20032;-57
2023/03/27 13:11:38;;;;;;;1.37;1.27;;;;;;;;;;4935679;28;20380;-57
2023/03/27 13:14:23;;;;;;;3.13;2.15;;;;;;;;;;4970418;28;20266;-57
2023/03/27 13:17:04;;;;;;;19.15;2.35;;;;;;;;;;5035022;28;20028;-57
2023/03/27 13:19:37;;;;;;;2.97;2.23;;;;;;;;;;4944839;28;20486;-57
2023/03/27 13:22:04;;;;;;;3.13;2.33;;;;;;;;;;4929420;28;20483;-57
2023/03/27 13:24:30;;;;;;;2.83;2.13;;;;;;;;;;4953208;28;20513;-57
2023/03/27 13:27:16;;;;;;;3.57;2.20;;;;;;;;;;4940495;28;20101;-57
2023/03/27 13:29:48;;;;;;;4.93;2.25;;;;;;;;;;4933800;28;21978;-58
2023/03/27 13:32:32;;;;;;;2.23;1.83;;;;;;;;;;4946834;28;20028;-57
2023/03/27 13:35:25;;;;;;;5.50;2.55;;;;;;;;;;4934094;28;20541;-58
2023/03/27 13:37:56;;;;;;;3.43;1.67;;;;;;;;;;4920667;28;20570;-58
2023/03/27 13:40:44;;;;;;;4.03;2.43;;;;;;;;;;4951589;28;20023;-57
2023/03/27 13:43:32;;;;;;;14.43;2.77;;;;;;;;;;4954500;28;20476;-58
2023/03/27 13:46:01;;;;;;;4.23;2.43;;;;;;;;;;4940064;28;20421;-58
2023/03/27 13:48:39;;;;;;;4.17;2.27;;;;;;;;;;4927238;28;20761;-58
2023/03/27 13:51:06;;;;;;;3.07;1.93;;;;;;;;;;4934374;28;20136;-58
2023/03/27 13:53:33;;;;;;;5.07;2.27;;;;;;;;;;4964794;28;20380;-58
2023/03/27 13:56:00;;;;;;;5.77;3.50;;;;;;;;;;4939261;28;20070;-59
2023/03/27 13:58:45;;;;;;;6.87;3.67;;;;;;;;;;4933889;28;20024;-58
2023/03/27 14:01:33;;;;;;;14.85;4.18;;;;;;;;;;4933696;28;20050;-59
2023/03/27 14:04:05;;;;;;;6.77;3.07;;;;;;;;;;4931110;28;20040;-58
2023/03/27 14:06:38;;;;;;;15.10;5.43;;;;;;;;;;4928503;28;20097;-58
2023/03/27 14:09:27;;;;;;;5.43;3.87;;;;;;;;;;4928196;28;20028;-58
2023/03/27 14:11:54;;;;;;;5.80;3.27;;;;;;;;;;4928087;28;20512;-59
2023/03/27 14:14:23;;;;;;;7.03;3.43;;;;;;;;;;4931818;28;20059;-58
2023/03/27 14:16:50;;;;;;;5.93;3.03;;;;;;;;;;4933988;28;20039;-59
2023/03/27 14:19:25;;;;;;;10.20;4.27;;;;;;;;;;4933121;28;20032;-59
2023/03/27 14:21:52;;;;;;;6.17;3.73;;;;;;;;;;4932537;28;20489;-58
2023/03/27 14:24:22;;;;;;;4.33;2.77;;;;;;;;;;4933386;28;20062;-58
2023/03/27 14:26:48;;;;;;;5.97;3.23;;;;;;;;;;4929183;28;20024;-59
2023/03/27 14:29:15;;;;;;;7.37;2.80;;;;;;;;;;5022064;28;20116;-58
2023/03/27 14:31:43;;;;;;;13.47;3.50;;;;;;;;;;5028233;28;20119;-59
2023/03/27 14:34:11;;;;;;;4.33;2.23;;;;;;;;;;5028206;28;20033;-59
2023/03/27 14:36:48;;;;;;;3.50;2.10;;;;;;;;;;5028326;28;20033;-59
2023/03/27 14:39:17;;;;;;;3.13;2.23;;;;;;;;;;5032387;28;20037;-59
2023/03/27 14:41:48;;;;;;;2.93;1.80;;;;;;;;;;5033580;28;20017;-59
2023/03/27 14:44:17;;;;;;;5.10;2.87;;;;;;;;;;5033491;28;20029;-59
2023/03/27 14:46:46;;;;;;;3.50;2.20;;;;;;;;;;5032671;28;20025;-59
2023/03/27 14:49:21;;;;;;;12.90;2.17;;;;;;;;;;5032297;28;20052;-59
2023/03/27 14:51:49;;;;;;;5.27;2.90;;;;;;;;;;5028287;28;20068;-60
2023/03/27 14:54:26;;;;;;;5.13;3.20;;;;;;;;;;5027428;28;20284;-60
2023/03/27 14:57:04;;;;;;;4.37;2.23;;;;;;;;;;5028195;28;20026;-60
2023/03/27 14:59:34;;;;;;;2.97;1.90;;;;;;;;;;5028275;28;20091;-60
2023/03/27 15:02:04;;;;;;;14.97;3.17;;;;;;;;;;5028427;28;20025;-59
2023/03/27 15:04:32;;;;;;;7.03;2.37;;;;;;;;;;4991419;28;20051;-60
2023/03/27 15:07:19;;;;;;;3.17;1.83;;;;;;;;;;4933172;28;20031;-61
2023/03/27 15:09:47;;;;;;;4.77;2.67;;;;;;;;;;4913791;28;20395;-60